Time;durP1;ratioP1;P1;durP2;ratioP2;P2;SDS_P1;SDS_P2;PMS_P1;PMS_P2;Temp;Humidity;BMP_temperature;BMP_pressure;BME280_temperature;BME280_humidity;BME280_pressure;Samples;Min_cycle;Max_cycle;Signal;HPM_P1;HPM_P2
2022/07/10 00:01:27;;;;;;;;;;;14.30;99.90;;;;;;5049823;28;19987;-81
2022/07/10 00:03:54;;;;;;;;;;;14.30;99.90;;;;;;5050522;28;19947;-81
2022/07/10 00:06:19;;;;;;;;;;;14.40;99.90;;;;;;5048664;28;19909;-82
2022/07/10 00:08:44;;;;;;;;;;;14.40;99.90;;;;;;5049106;28;20256;-80
2022/07/10 00:11:10;;;;;;;;;;;14.40;99.70;;;;;;5064800;28;20383;-80
2022/07/10 00:13:36;;;;;;;;;;;14.40;99.40;;;;;;5054010;28;20295;-82
2022/07/10 00:16:01;;;;;;;;;;;14.40;99.10;;;;;;5050258;28;20008;-79
2022/07/10 00:18:27;;;;;;;;;;;14.50;99.00;;;;;;5049522;28;19916;-79
2022/07/10 00:20:53;;;;;;;;;;;14.40;99.00;;;;;;5054602;28;20447;-83
2022/07/10 00:23:18;;;;;;;;;;;14.40;98.80;;;;;;5057177;28;20007;-82
2022/07/10 00:25:44;;;;;;;;;;;14.50;98.90;;;;;;5050491;28;19913;-79
2022/07/10 00:28:11;;;;;;;;;;;14.50;98.90;;;;;;5050197;28;19912;-82
2022/07/10 00:30:36;;;;;;;;;;;14.40;99.20;;;;;;5044894;28;19920;-81
2022/07/10 00:33:02;;;;;;;;;;;14.40;99.70;;;;;;5050288;28;19916;-81
2022/07/10 00:35:27;;;;;;;;;;;14.40;99.80;;;;;;5047096;28;19958;-82
2022/07/10 00:37:53;;;;;;;;;;;14.40;99.80;;;;;;5049994;28;20609;-81
2022/07/10 00:40:19;;;;;;;;;;;14.50;99.80;;;;;;5050027;28;19912;-83
2022/07/10 00:42:45;;;;;;;;;;;14.50;99.70;;;;;;5050317;28;19909;-83
2022/07/10 00:45:11;;;;;;;;;;;14.50;99.80;;;;;;5048608;28;19932;-82
2022/07/10 00:47:36;;;;;;;;;;;14.50;99.90;;;;;;5057912;28;19909;-79
2022/07/10 00:50:02;;;;;;;;;;;14.40;99.70;;;;;;5049802;28;20287;-80
2022/07/10 00:52:27;;;;;;;;;;;14.40;99.70;;;;;;5047242;28;19909;-81
2022/07/10 00:54:53;;;;;;;;;;;14.40;99.80;;;;;;5043670;28;19924;-81
2022/07/10 00:57:20;;;;;;;;;;;14.40;99.90;;;;;;5030835;28;20438;-80
2022/07/10 00:59:45;;;;;;;;;;;14.40;99.90;;;;;;5029458;28;20363;-81
2022/07/10 01:02:11;;;;;;;;;;;14.40;99.90;;;;;;5030061;28;19916;-81
2022/07/10 01:04:36;;;;;;;;;;;14.30;99.90;;;;;;5036975;28;19921;-80
2022/07/10 01:07:02;;;;;;;;;;;14.30;99.90;;;;;;5034863;28;19956;-80
2022/07/10 01:09:30;;;;;;;;;;;14.40;99.90;;;;;;5030504;28;19909;-78
2022/07/10 01:12:06;;;;;;;;;;;14.40;99.90;;;;;;5028574;28;19971;-80
2022/07/10 01:14:31;;;;;;;;;;;14.40;99.90;;;;;;5039958;28;20008;-80
2022/07/10 01:16:59;;;;;;;;;;;14.40;99.90;;;;;;5041959;28;20011;-80
2022/07/10 01:19:25;;;;;;;;;;;14.40;99.90;;;;;;5030666;28;19913;-80
2022/07/10 01:21:50;;;;;;;;;;;14.40;99.90;;;;;;5027786;28;19913;-82
2022/07/10 01:24:16;;;;;;;;;;;14.30;99.90;;;;;;5039714;28;19912;-82
2022/07/10 01:26:42;;;;;;;;;;;14.30;99.90;;;;;;5031467;28;19975;-81
2022/07/10 01:29:09;;;;;;;;;;;14.40;99.90;;;;;;5027569;28;19909;-81
2022/07/10 01:31:34;;;;;;;;;;;14.40;99.90;;;;;;5030212;28;19909;-80
2022/07/10 01:34:01;;;;;;;;;;;14.50;99.90;;;;;;5040032;28;20371;-80
2022/07/10 01:36:28;;;;;;;;;;;14.50;99.90;;;;;;5030292;28;20372;-81
2022/07/10 01:38:54;;;;;;;;;;;14.50;99.90;;;;;;5029289;28;19913;-82
2022/07/10 01:41:19;;;;;;;;;;;14.40;99.90;;;;;;5042653;28;19909;-81
2022/07/10 01:43:45;;;;;;;;;;;14.40;99.90;;;;;;5046397;28;19962;-82
2022/07/10 01:46:11;;;;;;;;;;;14.40;99.90;;;;;;5036825;28;19909;-80
2022/07/10 01:48:37;;;;;;;;;;;14.50;99.90;;;;;;5036046;28;20294;-81
2022/07/10 01:51:02;;;;;;;;;;;14.50;99.90;;;;;;5030520;28;20418;-81
2022/07/10 01:53:27;;;;;;;;;;;14.40;99.90;;;;;;5049546;28;19913;-81
2022/07/10 01:55:53;;;;;;;;;;;14.40;99.90;;;;;;5047745;28;20405;-82
2022/07/10 01:58:18;;;;;;;;;;;14.40;99.90;;;;;;5029803;28;19913;-82
2022/07/10 02:00:44;;;;;;;;;;;14.30;99.90;;;;;;5032594;28;19967;-81
2022/07/10 02:05:54;;;;;;;;;;;14.40;99.90;;;;;;5029656;28;20012;-81
2022/07/10 02:08:20;;;;;;;;;;;14.30;99.90;;;;;;5030162;28;19969;-82
2022/07/10 02:10:45;;;;;;;;;;;14.30;99.90;;;;;;5027670;28;20358;-80
2022/07/10 02:13:14;;;;;;;;;;;14.30;99.90;;;;;;5031013;28;20345;-80
2022/07/10 02:15:40;;;;;;;;;;;14.30;99.90;;;;;;5035534;28;19920;-80
2022/07/10 02:18:05;;;;;;;;;;;14.20;99.90;;;;;;5029959;28;19916;-81
2022/07/10 02:20:33;;;;;;;;;;;14.20;99.90;;;;;;5042653;28;20360;-80
2022/07/10 02:22:58;;;;;;;;;;;14.20;99.90;;;;;;5026862;28;20346;-80
2022/07/10 02:25:24;;;;;;;;;;;14.20;99.90;;;;;;5028550;28;20067;-81
2022/07/10 02:27:49;;;;;;;;;;;14.20;99.90;;;;;;5037942;28;19909;-82
2022/07/10 02:30:15;;;;;;;;;;;14.20;99.90;;;;;;5048876;28;19904;-82
2022/07/10 02:32:40;;;;;;;;;;;14.30;99.90;;;;;;5035119;28;19917;-80
2022/07/10 02:35:06;;;;;;;;;;;14.20;99.90;;;;;;5042873;28;19913;-82
2022/07/10 02:37:31;;;;;;;;;;;14.10;99.90;;;;;;5028303;28;19905;-81
2022/07/10 02:39:57;;;;;;;;;;;14.10;99.90;;;;;;5029768;28;19919;-83
2022/07/10 02:42:22;;;;;;;;;;;14.10;99.90;;;;;;5010666;28;19920;-81
2022/07/10 02:44:47;;;;;;;;;;;14.10;99.90;;;;;;5030670;28;20678;-79
2022/07/10 02:47:13;;;;;;;;;;;14.00;99.90;;;;;;5033133;28;19909;-81
2022/07/10 02:49:38;;;;;;;;;;;14.00;99.90;;;;;;5028139;28;20261;-82
2022/07/10 02:52:04;;;;;;;;;;;13.90;99.90;;;;;;5041733;28;19908;-82
2022/07/10 02:54:30;;;;;;;;;;;13.90;99.90;;;;;;5029379;28;19917;-76
2022/07/10 02:56:58;;;;;;;;;;;13.90;99.90;;;;;;5030773;28;19971;-76
2022/07/10 02:59:23;;;;;;;;;;;13.90;99.90;;;;;;5028347;28;19905;-76
2022/07/10 03:01:49;;;;;;;;;;;13.80;99.90;;;;;;5032190;28;19940;-75
2022/07/10 03:04:14;;;;;;;;;;;13.80;99.90;;;;;;5028515;28;20027;-77
2022/07/10 03:06:40;;;;;;;;;;;13.80;99.90;;;;;;5028630;28;19905;-76
2022/07/10 03:09:05;;;;;;;;;;;13.80;99.90;;;;;;5029033;28;19908;-77
2022/07/10 03:11:30;;;;;;;;;;;13.70;99.90;;;;;;5048341;28;19971;-76
2022/07/10 03:13:56;;;;;;;;;;;13.70;99.90;;;;;;5029621;28;20426;-76
2022/07/10 03:16:21;;;;;;;;;;;13.80;99.90;;;;;;5026607;28;19905;-77
2022/07/10 03:18:49;;;;;;;;;;;13.70;99.90;;;;;;5045584;28;19908;-76
2022/07/10 03:21:15;;;;;;;;;;;13.70;99.90;;;;;;5050279;28;20004;-76
2022/07/10 03:23:40;;;;;;;;;;;13.80;99.90;;;;;;5036407;28;19988;-76
2022/07/10 03:26:06;;;;;;;;;;;13.90;99.90;;;;;;5037311;28;20004;-77
2022/07/10 03:28:31;;;;;;;;;;;13.80;99.90;;;;;;5031590;28;20322;-76
2022/07/10 03:30:56;;;;;;;;;;;13.80;99.90;;;;;;5047227;28;19912;-75
2022/07/10 03:33:22;;;;;;;;;;;13.80;99.90;;;;;;5051476;28;19927;-76
2022/07/10 03:35:48;;;;;;;;;;;13.80;99.90;;;;;;5037741;28;19916;-76
2022/07/10 03:38:13;;;;;;;;;;;13.70;99.90;;;;;;5033230;28;19916;-77
2022/07/10 03:40:39;;;;;;;;;;;13.70;99.90;;;;;;5029351;28;19909;-75
2022/07/10 03:43:04;;;;;;;;;;;13.70;99.90;;;;;;5024485;28;20205;-78
2022/07/10 03:45:29;;;;;;;;;;;13.70;99.90;;;;;;5037321;28;19980;-76
2022/07/10 03:47:55;;;;;;;;;;;13.80;99.90;;;;;;5033708;28;19936;-76
2022/07/10 03:50:20;;;;;;;;;;;13.80;99.90;;;;;;5030603;28;19916;-76
2022/07/10 03:52:46;;;;;;;;;;;13.80;99.90;;;;;;5049483;28;19905;-77
2022/07/10 03:55:11;;;;;;;;;;;13.80;99.90;;;;;;5041769;28;19992;-77
2022/07/10 03:57:56;;;;;;;;;;;13.80;99.90;;;;;;5049781;28;19939;-75
2022/07/10 04:00:26;;;;;;;;;;;13.90;99.90;;;;;;5051681;28;19909;-76
2022/07/10 04:03:01;;;;;;;;;;;13.90;99.90;;;;;;5050840;28;19905;-76
2022/07/10 04:05:27;;;;;;;;;;;13.90;99.90;;;;;;5050893;28;19920;-76
2022/07/10 04:07:53;;;;;;;;;;;13.90;99.90;;;;;;5054391;28;19920;-77
2022/07/10 04:10:18;;;;;;;;;;;13.90;99.90;;;;;;5059252;28;19909;-76
2022/07/10 04:12:44;;;;;;;;;;;13.90;99.90;;;;;;5050252;28;19912;-75
2022/07/10 04:15:09;;;;;;;;;;;14.00;99.90;;;;;;5049793;28;20497;-77
2022/07/10 04:17:35;;;;;;;;;;;14.00;99.90;;;;;;5048910;28;20382;-76
2022/07/10 04:20:00;;;;;;;;;;;14.00;99.90;;;;;;5047584;28;19943;-77
2022/07/10 04:22:26;;;;;;;;;;;14.10;99.90;;;;;;5056128;28;20473;-77
2022/07/10 04:24:52;;;;;;;;;;;14.10;99.90;;;;;;5046712;28;19917;-77
2022/07/10 04:27:17;;;;;;;;;;;14.00;99.90;;;;;;5039504;28;19982;-76
2022/07/10 04:29:43;;;;;;;;;;;14.00;99.90;;;;;;5050483;28;20306;-76
2022/07/10 04:32:08;;;;;;;;;;;13.90;99.90;;;;;;5049160;28;19916;-76
2022/07/10 04:34:34;;;;;;;;;;;13.90;99.90;;;;;;5055039;28;20484;-75
2022/07/10 04:36:59;;;;;;;;;;;13.90;99.90;;;;;;5050504;28;20257;-76
2022/07/10 04:39:25;;;;;;;;;;;14.00;99.90;;;;;;5050385;28;19905;-77
2022/07/10 04:41:51;;;;;;;;;;;14.10;99.90;;;;;;5049842;28;20481;-77
2022/07/10 04:44:17;;;;;;;;;;;14.10;99.90;;;;;;5055722;28;19983;-76
2022/07/10 04:46:43;;;;;;;;;;;14.00;99.90;;;;;;5050134;28;19915;-77
2022/07/10 04:49:08;;;;;;;;;;;14.10;99.90;;;;;;5050022;28;20279;-76
2022/07/10 04:51:34;;;;;;;;;;;14.20;99.90;;;;;;5050233;28;20367;-76
2022/07/10 04:54:00;;;;;;;;;;;14.30;99.90;;;;;;5051851;28;19970;-77
2022/07/10 04:56:26;;;;;;;;;;;14.30;99.90;;;;;;5028900;28;19995;-76
2022/07/10 04:58:51;;;;;;;;;;;14.40;99.90;;;;;;5029493;28;20075;-78
2022/07/10 05:01:17;;;;;;;;;;;14.40;99.90;;;;;;5034553;28;19913;-77
2022/07/10 05:03:42;;;;;;;;;;;14.30;99.90;;;;;;5027483;28;19931;-76
2022/07/10 05:06:08;;;;;;;;;;;14.40;99.90;;;;;;5025971;28;19936;-76
2022/07/10 05:08:33;;;;;;;;;;;14.40;99.90;;;;;;5034179;28;19909;-77
2022/07/10 05:10:59;;;;;;;;;;;14.40;99.90;;;;;;5032873;28;19920;-77
2022/07/10 05:13:24;;;;;;;;;;;14.40;99.90;;;;;;5034911;28;19924;-75
2022/07/10 05:15:50;;;;;;;;;;;14.40;99.90;;;;;;5026293;28;20010;-75
2022/07/10 05:18:15;;;;;;;;;;;14.40;99.90;;;;;;5029273;28;20341;-76
2022/07/10 05:20:43;;;;;;;;;;;14.50;99.90;;;;;;5026548;28;20431;-76
2022/07/10 05:23:09;;;;;;;;;;;14.50;99.90;;;;;;5030754;28;19964;-76
2022/07/10 05:25:37;;;;;;;;;;;14.50;99.90;;;;;;5027977;28;19917;-75
2022/07/10 05:28:03;;;;;;;;;;;14.50;99.90;;;;;;5028942;28;20375;-77
2022/07/10 05:30:28;;;;;;;;;;;14.60;99.90;;;;;;5028395;28;19975;-76
2022/07/10 05:32:53;;;;;;;;;;;14.50;99.90;;;;;;5029656;28;19909;-77
2022/07/10 05:35:19;;;;;;;;;;;14.50;99.90;;;;;;5027626;28;20383;-76
2022/07/10 05:37:44;;;;;;;;;;;14.50;99.90;;;;;;5033928;28;19948;-76
2022/07/10 05:40:10;;;;;;;;;;;14.60;99.90;;;;;;5028223;28;19951;-76
2022/07/10 05:42:35;;;;;;;;;;;14.70;99.90;;;;;;5035248;28;20355;-76
2022/07/10 05:45:01;;;;;;;;;;;14.80;99.90;;;;;;5028868;28;19912;-76
2022/07/10 05:47:27;;;;;;;;;;;14.80;99.90;;;;;;5021267;28;19991;-77
2022/07/10 05:49:52;;;;;;;;;;;14.80;99.90;;;;;;5028680;28;20416;-75
2022/07/10 05:52:18;;;;;;;;;;;14.80;99.90;;;;;;5029554;28;19984;-76
2022/07/10 05:54:43;;;;;;;;;;;14.80;99.90;;;;;;5035245;28;20320;-76
2022/07/10 05:57:09;;;;;;;;;;;14.90;99.90;;;;;;5027277;28;19967;-77
2022/07/10 05:59:34;;;;;;;;;;;14.80;99.90;;;;;;5028546;28;19915;-77
2022/07/10 06:02:00;;;;;;;;;;;14.80;99.90;;;;;;5029071;28;19905;-76
2022/07/10 06:04:26;;;;;;;;;;;14.90;99.90;;;;;;5028582;28;19968;-77
2022/07/10 06:06:51;;;;;;;;;;;14.90;99.90;;;;;;5026508;28;20727;-76
2022/07/10 06:09:17;;;;;;;;;;;14.90;99.90;;;;;;5032186;28;20366;-75
2022/07/10 06:11:44;;;;;;;;;;;14.70;99.90;;;;;;5028391;28;19905;-76
2022/07/10 06:14:09;;;;;;;;;;;14.90;99.90;;;;;;5028456;28;19920;-77
2022/07/10 06:16:34;;;;;;;;;;;14.90;99.90;;;;;;5027720;28;20391;-76
2022/07/10 06:19:00;;;;;;;;;;;14.80;99.90;;;;;;5026509;28;19917;-76
2022/07/10 06:21:25;;;;;;;;;;;14.80;99.90;;;;;;5029410;28;19951;-76
2022/07/10 06:23:51;;;;;;;;;;;14.90;99.90;;;;;;5028681;28;19916;-76
2022/07/10 06:26:16;;;;;;;;;;;15.00;99.90;;;;;;5028835;28;20016;-77
2022/07/10 06:28:42;;;;;;;;;;;15.10;99.90;;;;;;5028018;28;19979;-76
2022/07/10 06:31:07;;;;;;;;;;;15.20;99.90;;;;;;5034045;28;20845;-76
2022/07/10 06:33:35;;;;;;;;;;;15.20;99.90;;;;;;5022528;28;20544;-77
2022/07/10 06:36:00;;;;;;;;;;;15.50;99.90;;;;;;5029249;28;19909;-77
2022/07/10 06:38:26;;;;;;;;;;;15.60;99.90;;;;;;5030285;28;20513;-76
2022/07/10 06:40:52;;;;;;;;;;;15.60;99.90;;;;;;5023939;28;20000;-77
2022/07/10 06:43:17;;;;;;;;;;;15.70;99.90;;;;;;5020558;28;19975;-77
2022/07/10 06:45:43;;;;;;;;;;;15.60;99.90;;;;;;5021825;28;20709;-76
2022/07/10 06:48:09;;;;;;;;;;;15.40;99.90;;;;;;5034832;28;19909;-77
2022/07/10 06:50:34;;;;;;;;;;;15.40;99.90;;;;;;5019744;28;19932;-76
2022/07/10 06:53:00;;;;;;;;;;;15.60;99.90;;;;;;5035246;28;20371;-77
2022/07/10 06:55:26;;;;;;;;;;;15.70;99.90;;;;;;5044577;28;19917;-76
2022/07/10 06:57:51;;;;;;;;;;;15.90;99.80;;;;;;5038163;28;19920;-76
2022/07/10 07:00:17;;;;;;;;;;;16.10;98.90;;;;;;5039498;28;19975;-76
2022/07/10 07:02:42;;;;;;;;;;;16.10;98.60;;;;;;5029555;28;19916;-77
2022/07/10 07:05:08;;;;;;;;;;;16.30;98.40;;;;;;5029175;28;19913;-76
2022/07/10 07:07:34;;;;;;;;;;;16.50;96.80;;;;;;5034726;28;19909;-76
2022/07/10 07:09:59;;;;;;;;;;;16.40;95.80;;;;;;5029425;28;19913;-76
2022/07/10 07:12:24;;;;;;;;;;;16.30;95.20;;;;;;5034476;28;19916;-75
2022/07/10 07:14:50;;;;;;;;;;;16.60;95.60;;;;;;5047318;28;19949;-76
2022/07/10 07:17:21;;;;;;;;;;;16.90;95.10;;;;;;5031680;28;20444;-76
2022/07/10 07:25:15;;;;;;;;;;;16.70;92.20;;;;;;5030111;28;19959;-76
2022/07/10 07:27:41;;;;;;;;;;;16.50;92.00;;;;;;5033898;28;19913;-76
2022/07/10 07:30:08;;;;;;;;;;;16.60;92.50;;;;;;5031752;28;19916;-77
2022/07/10 07:32:33;;;;;;;;;;;16.80;92.50;;;;;;5025520;28;19908;-76
2022/07/10 07:35:00;;;;;;;;;;;16.80;92.10;;;;;;5042461;28;19924;-75
2022/07/10 07:37:42;;;;;;;;;;;16.90;91.40;;;;;;5030528;28;20291;-76
2022/07/10 07:40:08;;;;;;;;;;;16.70;90.20;;;;;;5032546;28;19996;-76
2022/07/10 07:42:34;;;;;;;;;;;16.70;90.80;;;;;;5032464;28;19909;-76
2022/07/10 07:45:00;;;;;;;;;;;16.70;89.40;;;;;;5040073;28;20556;-76
2022/07/10 07:47:25;;;;;;;;;;;16.80;87.40;;;;;;5040899;28;19909;-75
2022/07/10 07:49:51;;;;;;;;;;;16.80;88.30;;;;;;5032794;28;20327;-76
2022/07/10 07:52:19;;;;;;;;;;;17.20;88.60;;;;;;5030814;28;19913;-75
2022/07/10 07:54:45;;;;;;;;;;;17.30;86.30;;;;;;5035072;28;20007;-76
2022/07/10 07:57:10;;;;;;;;;;;17.40;86.70;;;;;;5041884;28;20067;-76
2022/07/10 07:59:36;;;;;;;;;;;17.50;84.20;;;;;;5029331;28;19909;-76
2022/07/10 08:02:01;;;;;;;;;;;17.60;84.80;;;;;;5028266;28;20355;-76
2022/07/10 08:04:27;;;;;;;;;;;17.50;83.80;;;;;;5033532;28;19916;-78
2022/07/10 08:06:53;;;;;;;;;;;17.20;84.90;;;;;;5036246;28;20352;-83
2022/07/10 08:09:19;;;;;;;;;;;17.20;86.10;;;;;;5029659;28;19913;-83
2022/07/10 08:11:45;;;;;;;;;;;17.10;84.70;;;;;;5030295;28;19932;-78
2022/07/10 08:14:10;;;;;;;;;;;17.00;85.10;;;;;;5035558;28;20344;-80
2022/07/10 08:16:36;;;;;;;;;;;16.90;85.60;;;;;;5033184;28;19908;-80
2022/07/10 08:19:01;;;;;;;;;;;16.90;85.10;;;;;;5037683;28;19930;-79
2022/07/10 08:21:27;;;;;;;;;;;17.00;84.90;;;;;;5043269;28;19920;-81
2022/07/10 08:23:53;;;;;;;;;;;17.10;84.50;;;;;;5032360;28;19909;-80
2022/07/10 08:26:19;;;;;;;;;;;17.50;82.80;;;;;;5032219;28;19921;-78
2022/07/10 08:28:44;;;;;;;;;;;17.80;80.90;;;;;;5029311;28;20383;-80
2022/07/10 08:31:10;;;;;;;;;;;17.70;79.50;;;;;;5031393;28;19905;-80
2022/07/10 08:33:35;;;;;;;;;;;17.50;75.70;;;;;;5029042;28;20059;-78
2022/07/10 08:36:00;;;;;;;;;;;17.80;75.80;;;;;;5036330;28;19905;-79
2022/07/10 08:38:26;;;;;;;;;;;18.10;77.30;;;;;;5041300;28;19953;-79
2022/07/10 08:40:53;;;;;;;;;;;18.20;74.60;;;;;;5031041;28;19992;-76
2022/07/10 08:43:18;;;;;;;;;;;18.10;73.30;;;;;;5036677;28;20382;-82
2022/07/10 08:45:45;;;;;;;;;;;18.10;73.20;;;;;;5031674;28;19913;-80
2022/07/10 08:48:12;;;;;;;;;;;18.00;73.60;;;;;;5030086;28;19967;-76
2022/07/10 08:50:43;;;;;;;;;;;18.00;76.70;;;;;;5025222;28;19947;-78
2022/07/10 08:53:12;;;;;;;;;;;18.20;74.10;;;;;;5027095;28;20393;-81
2022/07/10 08:55:38;;;;;;;;;;;18.20;75.20;;;;;;5045490;28;19975;-76
2022/07/10 08:58:07;;;;;;;;;;;18.20;74.80;;;;;;5062624;28;20009;-77
2022/07/10 09:00:32;;;;;;;;;;;17.90;76.90;;;;;;5049850;28;19905;-77
2022/07/10 09:02:58;;;;;;;;;;;17.60;78.10;;;;;;5055850;28;20391;-79
2022/07/10 09:05:23;;;;;;;;;;;17.60;79.30;;;;;;5051411;28;19912;-82
2022/07/10 09:07:49;;;;;;;;;;;17.40;79.30;;;;;;5051803;28;19912;-85
2022/07/10 09:10:14;;;;;;;;;;;17.80;79.80;;;;;;5051591;28;19908;-82
2022/07/10 09:12:56;;;;;;;;;;;18.00;80.50;;;;;;5054571;28;20383;-84
2022/07/10 09:15:23;;;;;;;;;;;18.20;78.40;;;;;;5049411;28;19916;-82
2022/07/10 09:17:49;;;;;;;;;;;18.20;75.90;;;;;;5050148;28;19909;-81
2022/07/10 09:20:24;;;;;;;;;;;18.20;75.90;;;;;;5050141;28;19919;-81
2022/07/10 09:22:49;;;;;;;;;;;18.40;73.90;;;;;;5051133;28;19920;-81
2022/07/10 09:25:15;;;;;;;;;;;18.50;74.30;;;;;;5049727;28;20287;-81
2022/07/10 09:27:54;;;;;;;;;;;18.60;76.00;;;;;;5048571;28;19908;-80
2022/07/10 09:30:35;;;;;;;;;;;18.70;73.50;;;;;;5049407;28;19955;-81
2022/07/10 09:33:18;;;;;;;;;;;18.80;73.30;;;;;;5047978;28;20035;-82
2022/07/10 09:36:05;;;;;;;;;;;19.10;73.70;;;;;;5049109;28;19909;-81
2022/07/10 09:38:51;;;;;;;;;;;19.10;69.50;;;;;;5053958;28;19916;-81
2022/07/10 09:41:18;;;;;;;;;;;19.20;71.40;;;;;;5048486;28;19955;-80
2022/07/10 09:43:45;;;;;;;;;;;19.20;67.40;;;;;;5048305;28;19909;-77
2022/07/10 09:46:10;;;;;;;;;;;19.40;70.80;;;;;;5049444;28;19917;-79
2022/07/10 09:48:36;;;;;;;;;;;19.60;71.40;;;;;;5057453;28;19986;-79
2022/07/10 09:51:01;;;;;;;;;;;19.90;70.90;;;;;;5050454;28;19915;-79
2022/07/10 09:53:27;;;;;;;;;;;19.80;68.30;;;;;;5049388;28;19913;-77
2022/07/10 09:55:54;;;;;;;;;;;19.90;70.80;;;;;;5035452;28;20603;-79
2022/07/10 09:58:21;;;;;;;;;;;19.60;68.50;;;;;;5029613;28;19905;-81
2022/07/10 10:00:47;;;;;;;;;;;19.80;70.60;;;;;;5029087;28;19909;-78
2022/07/10 10:03:14;;;;;;;;;;;19.80;67.80;;;;;;5030406;28;19909;-79
2022/07/10 10:05:45;;;;;;;;;;;19.90;66.60;;;;;;5023702;28;19935;-77
2022/07/10 10:08:12;;;;;;;;;;;19.60;67.30;;;;;;5029932;28;19945;-84
2022/07/10 10:10:40;;;;;;;;;;;19.80;69.70;;;;;;5036505;28;20006;-80
2022/07/10 10:13:08;;;;;;;;;;;19.80;66.80;;;;;;5035514;28;19920;-78
2022/07/10 10:15:34;;;;;;;;;;;19.60;69.50;;;;;;5039101;28;20466;-81
2022/07/10 10:18:01;;;;;;;;;;;19.30;68.80;;;;;;5034259;28;19944;-77
2022/07/10 10:20:37;;;;;;;;;;;19.60;69.20;;;;;;5041087;28;20224;-77
2022/07/10 10:23:08;;;;;;;;;;;19.70;67.10;;;;;;5041164;28;19909;-82
2022/07/10 10:25:34;;;;;;;;;;;19.90;68.20;;;;;;5043466;28;20157;-79
2022/07/10 10:28:01;;;;;;;;;;;20.00;67.10;;;;;;5030917;28;19999;-84
2022/07/10 10:30:27;;;;;;;;;;;19.90;66.60;;;;;;5035974;28;19909;-78
2022/07/10 10:32:52;;;;;;;;;;;19.80;65.30;;;;;;5034704;28;19909;-77
2022/07/10 10:35:36;;;;;;;;;;;19.60;65.60;;;;;;5048345;28;19972;-84
2022/07/10 10:38:02;;;;;;;;;;;19.60;67.40;;;;;;5015982;28;19913;-81
2022/07/10 10:40:31;;;;;;;;;;;19.60;66.60;;;;;;5032904;28;19913;-85
2022/07/10 10:42:58;;;;;;;;;;;19.70;67.10;;;;;;5028712;28;19909;-78
2022/07/10 10:45:24;;;;;;;;;;;20.00;67.00;;;;;;5035227;28;20390;-80
2022/07/10 10:48:00;;;;;;;;;;;20.20;64.60;;;;;;5032948;28;19912;-84
2022/07/10 10:50:38;;;;;;;;;;;20.10;64.40;;;;;;5034233;28;20000;-85
2022/07/10 10:53:04;;;;;;;;;;;20.30;64.30;;;;;;5032703;28;20271;-83
2022/07/10 10:55:30;;;;;;;;;;;20.10;65.10;;;;;;5039527;28;19920;-82
2022/07/10 10:58:12;;;;;;;;;;;20.30;64.80;;;;;;5049231;28;19916;-83
2022/07/10 11:00:37;;;;;;;;;;;20.40;64.10;;;;;;5045270;28;20290;-85
2022/07/10 11:03:11;;;;;;;;;;;20.20;64.60;;;;;;5035059;28;19912;-79
2022/07/10 11:05:38;;;;;;;;;;;20.10;64.50;;;;;;5052883;28;19913;-83
2022/07/10 11:08:04;;;;;;;;;;;20.10;63.40;;;;;;5051529;28;19947;-82
2022/07/10 11:10:32;;;;;;;;;;;20.40;65.70;;;;;;5051485;28;19913;-81
2022/07/10 11:12:57;;;;;;;;;;;20.70;63.20;;;;;;5052583;28;19917;-87
2022/07/10 11:15:23;;;;;;;;;;;20.70;62.50;;;;;;5051197;28;19909;-77
2022/07/10 11:17:50;;;;;;;;;;;20.60;62.10;;;;;;5052977;28;20308;-80
2022/07/10 11:20:15;;;;;;;;;;;20.40;64.70;;;;;;5049356;28;19924;-80
2022/07/10 11:22:52;;;;;;;;;;;20.70;64.00;;;;;;5050973;28;19908;-77
2022/07/10 11:25:41;;;;;;;;;;;21.20;66.30;;;;;;5050664;28;19917;-79
2022/07/10 11:28:10;;;;;;;;;;;21.50;61.10;;;;;;5051459;28;19913;-79
2022/07/10 11:30:45;;;;;;;;;;;21.50;60.30;;;;;;5048984;28;19916;-79
2022/07/10 11:33:11;;;;;;;;;;;21.70;62.30;;;;;;5044941;28;19909;-76
2022/07/10 11:35:38;;;;;;;;;;;21.60;59.90;;;;;;5031922;28;19927;-76
2022/07/10 11:38:03;;;;;;;;;;;22.00;59.10;;;;;;5038155;28;19915;-77
2022/07/10 11:40:28;;;;;;;;;;;22.20;58.00;;;;;;5042965;28;19916;-76
2022/07/10 11:42:55;;;;;;;;;;;22.20;58.10;;;;;;5039310;28;19935;-76
2022/07/10 11:45:26;;;;;;;;;;;21.50;59.00;;;;;;5045800;28;19912;-77
2022/07/10 11:47:51;;;;;;;;;;;21.10;61.20;;;;;;5044191;28;20415;-77
2022/07/10 11:50:17;;;;;;;;;;;20.80;60.00;;;;;;5042089;28;19921;-76
2022/07/10 11:52:45;;;;;;;;;;;20.80;61.00;;;;;;5048265;28;19912;-77
2022/07/10 11:55:17;;;;;;;;;;;21.30;65.30;;;;;;5038753;28;19924;-76
2022/07/10 11:57:48;;;;;;;;;;;21.80;60.30;;;;;;5047323;28;19916;-78
2022/07/10 12:00:20;;;;;;;;;;;22.40;61.30;;;;;;5046646;28;19913;-78
2022/07/10 12:02:46;;;;;;;;;;;22.50;59.00;;;;;;5041667;28;19915;-76
2022/07/10 12:05:30;;;;;;;;;;;22.90;59.30;;;;;;5041904;28;20294;-76
2022/07/10 12:07:55;;;;;;;;;;;22.70;56.80;;;;;;5046078;28;19917;-76
2022/07/10 12:10:25;;;;;;;;;;;23.00;56.00;;;;;;5048665;28;20322;-75
2022/07/10 12:12:50;;;;;;;;;;;23.90;55.40;;;;;;5044450;28;19923;-76
2022/07/10 12:15:36;;;;;;;;;;;24.30;53.60;;;;;;5043846;28;19909;-75
2022/07/10 12:18:02;;;;;;;;;;;24.10;54.80;;;;;;5047279;28;20458;-75
2022/07/10 12:20:28;;;;;;;;;;;23.70;54.60;;;;;;5044113;28;19912;-75
2022/07/10 12:22:54;;;;;;;;;;;22.90;55.00;;;;;;5044370;28;20023;-75
2022/07/10 12:25:22;;;;;;;;;;;22.20;56.00;;;;;;5046997;28;19964;-76
2022/07/10 12:27:48;;;;;;;;;;;21.90;56.60;;;;;;5046516;28;19926;-75
2022/07/10 12:30:13;;;;;;;;;;;22.20;58.60;;;;;;5046749;28;19909;-75
2022/07/10 12:32:38;;;;;;;;;;;22.40;57.50;;;;;;5046300;28;20055;-76
2022/07/10 12:35:07;;;;;;;;;;;22.30;57.10;;;;;;5044756;28;19908;-74
2022/07/10 12:37:32;;;;;;;;;;;21.90;57.90;;;;;;5049848;28;20422;-74
2022/07/10 12:39:59;;;;;;;;;;;21.90;60.70;;;;;;5048562;28;19941;-73
2022/07/10 12:42:28;;;;;;;;;;;22.10;58.00;;;;;;5051923;28;19920;-74
2022/07/10 12:44:53;;;;;;;;;;;22.10;57.80;;;;;;5054328;28;19935;-74
2022/07/10 12:47:20;;;;;;;;;;;22.30;58.40;;;;;;5050086;28;20324;-77
2022/07/10 12:49:52;;;;;;;;;;;22.70;56.50;;;;;;5037506;28;19909;-75
2022/07/10 12:52:21;;;;;;;;;;;23.10;56.30;;;;;;5051952;28;19966;-76
2022/07/10 12:54:47;;;;;;;;;;;25.40;55.50;;;;;;5054311;28;19916;-80
2022/07/10 12:57:12;;;;;;;;;;;27.30;50.30;;;;;;5050995;28;19916;-82
2022/07/10 12:59:38;;;;;;;;;;;26.50;48.70;;;;;;5046944;28;20034;-80
2022/07/10 13:02:17;;;;;;;;;;;26.60;49.80;;;;;;5048190;28;19909;-83
2022/07/10 13:04:51;;;;;;;;;;;27.70;49.10;;;;;;5047084;28;19996;-82
2022/07/10 13:07:17;;;;;;;;;;;28.20;45.60;;;;;;5046930;28;19999;-77
2022/07/10 13:09:44;;;;;;;;;;;26.80;48.40;;;;;;5051949;28;20323;-80
2022/07/10 13:12:09;;;;;;;;;;;27.10;48.60;;;;;;5048087;28;20635;-83
2022/07/10 13:14:35;;;;;;;;;;;26.30;47.50;;;;;;5029504;28;19984;-82
2022/07/10 13:17:00;;;;;;;;;;;24.90;50.20;;;;;;5048190;28;19960;-83
2022/07/10 13:19:26;;;;;;;;;;;24.70;50.80;;;;;;5046725;28;19978;-80
2022/07/10 13:21:51;;;;;;;;;;;24.80;50.50;;;;;;5052773;28;20402;-80
2022/07/10 13:24:17;;;;;;;;;;;27.10;47.00;;;;;;5051477;28;20376;-78
2022/07/10 13:26:42;;;;;;;;;;;28.10;45.40;;;;;;5049811;28;19955;-86
2022/07/10 13:29:08;;;;;;;;;;;28.70;45.10;;;;;;5049448;28;19917;-82
2022/07/10 13:31:33;;;;;;;;;;;27.40;46.50;;;;;;5051271;28;19943;-79
2022/07/10 13:36:15;;;;;;;0.80;0.60;;;24.90;51.00;;;;;;4991878;28;1146468;-86
2022/07/10 13:38:42;;;;;;;1.92;0.60;;;23.90;52.90;;;;;;5000652;28;20053;-77
2022/07/10 13:41:07;;;;;;;0.65;0.43;;;23.80;53.20;;;;;;5003793;28;20053;-78
2022/07/10 13:43:33;;;;;;;0.77;0.47;;;24.80;50.90;;;;;;5001827;28;20385;-76
2022/07/10 13:46:00;;;;;;;0.98;0.40;;;26.80;49.20;;;;;;5004954;28;20030;-77
2022/07/10 13:51:45;;;;;;;0.80;0.55;;;30.30;45.70;;;;;;4905231;29;20039;-75
2022/07/10 13:54:11;;;;;;;2.53;1.05;;;31.90;41.70;;;;;;4988263;28;20157;-76
2022/07/10 13:56:36;;;;;;;1.05;0.70;;;30.80;41.60;;;;;;4983226;28;20059;-76
2022/07/10 13:59:02;;;;;;;0.30;0.30;;;27.90;43.00;;;;;;4984122;28;20493;-75
2022/07/10 14:01:27;;;;;;;0.10;0.10;;;25.80;47.30;;;;;;4990099;28;20019;-76
2022/07/10 14:03:53;;;;;;;0.30;0.30;;;24.60;50.50;;;;;;4986601;28;20450;-83
2022/07/10 14:06:18;;;;;;;0.60;0.28;;;24.80;51.30;;;;;;4984762;28;20031;-78
2022/07/10 14:08:44;;;;;;;0.60;0.30;;;25.20;50.70;;;;;;4986555;28;20031;-75
2022/07/10 14:11:09;;;;;;;1.08;0.30;;;26.80;47.10;;;;;;4988221;28;20035;-76
2022/07/10 14:13:35;;;;;;;0.35;0.32;;;31.40;44.30;;;;;;4985633;28;20517;-75
2022/07/10 14:16:02;;;;;;;4.22;0.40;;;34.60;39.60;;;;;;4981588;28;20153;-80
2022/07/10 14:18:34;;;;;;;1.65;0.52;;;37.10;36.50;;;;;;4984149;28;20019;-78
2022/07/10 14:21:10;;;;;;;0.38;0.30;;;37.20;31.50;;;;;;4982929;28;20190;-82
2022/07/10 14:23:43;;;;;;;0.45;0.32;;;37.60;35.20;;;;;;4985991;28;20034;-80